sensor_id;sensor_type;location;lat;lon;timestamp;temperature;humidity
51021;DHT22;38907;45.562;8.856;2023-03-01T00:02:29;5.80;99.90
51021;DHT22;38907;45.562;8.856;2023-03-01T00:07:31;5.70;99.90
51021;DHT22;38907;45.562;8.856;2023-03-01T00:12:34;5.70;99.90
51021;DHT22;38907;45.562;8.856;2023-03-01T00:17:36;5.80;99.90
51021;DHT22;38907;45.562;8.856;2023-03-01T00:22:38;5.80;99.90
51021;DHT22;38907;45.562;8.856;2023-03-01T00:27:42;5.70;99.90
51021;DHT22;38907;45.562;8.856;2023-03-01T00:32:43;5.60;99.90
51021;DHT22;38907;45.562;8.856;2023-03-01T00:37:45;5.60;99.90
51021;DHT22;38907;45.562;8.856;2023-03-01T00:42:48;5.60;99.90
51021;DHT22;38907;45.562;8.856;2023-03-01T00:47:51;5.60;99.90
51021;DHT22;38907;45.562;8.856;2023-03-01T00:52:53;5.60;99.90
51021;DHT22;38907;45.562;8.856;2023-03-01T00:57:57;5.50;99.90
51021;DHT22;38907;45.562;8.856;2023-03-01T01:02:59;5.50;99.90
51021;DHT22;38907;45.562;8.856;2023-03-01T01:08:00;5.40;99.90
51021;DHT22;38907;45.562;8.856;2023-03-01T01:13:04;5.40;99.90
51021;DHT22;38907;45.562;8.856;2023-03-01T01:18:06;5.50;99.90
51021;DHT22;38907;45.562;8.856;2023-03-01T01:23:08;5.50;99.90
51021;DHT22;38907;45.562;8.856;2023-03-01T01:28:11;5.50;99.90
51021;DHT22;38907;45.562;8.856;2023-03-01T01:33:13;5.40;99.90
51021;DHT22;38907;45.562;8.856;2023-03-01T01:38:15;5.40;99.90
51021;DHT22;38907;45.562;8.856;2023-03-01T01:43:21;5.40;99.90
51021;DHT22;38907;45.562;8.856;2023-03-01T01:48:28;5.30;99.90
51021;DHT22;38907;45.562;8.856;2023-03-01T01:53:41;5.20;99.90
51021;DHT22;38907;45.562;8.856;2023-03-01T01:58:45;5.20;99.90
51021;DHT22;38907;45.562;8.856;2023-03-01T02:03:49;5.20;99.90
51021;DHT22;38907;45.562;8.856;2023-03-01T02:08:52;5.10;99.90
51021;DHT22;38907;45.562;8.856;2023-03-01T02:13:56;5.00;99.90
51021;DHT22;38907;45.562;8.856;2023-03-01T02:18:58;5.00;99.90
51021;DHT22;38907;45.562;8.856;2023-03-01T02:24:07;5.00;99.90
51021;DHT22;38907;45.562;8.856;2023-03-01T02:29:11;5.00;99.90
51021;DHT22;38907;45.562;8.856;2023-03-01T02:34:15;5.10;99.90
51021;DHT22;38907;45.562;8.856;2023-03-01T02:39:28;5.10;99.90
51021;DHT22;38907;45.562;8.856;2023-03-01T02:44:33;5.00;99.90
51021;DHT22;38907;45.562;8.856;2023-03-01T02:49:36;5.00;99.90
51021;DHT22;38907;45.562;8.856;2023-03-01T02:54:41;4.90;99.90
51021;DHT22;38907;45.562;8.856;2023-03-01T02:59:46;5.00;99.90
51021;DHT22;38907;45.562;8.856;2023-03-01T03:04:48;5.10;99.90
51021;DHT22;38907;45.562;8.856;2023-03-01T03:09:50;5.00;99.90
51021;DHT22;38907;45.562;8.856;2023-03-01T03:14:53;4.90;99.90
51021;DHT22;38907;45.562;8.856;2023-03-01T03:19:55;4.90;99.90
51021;DHT22;38907;45.562;8.856;2023-03-01T03:24:57;5.00;99.90
51021;DHT22;38907;45.562;8.856;2023-03-01T03:30:00;4.90;99.90
51021;DHT22;38907;45.562;8.856;2023-03-01T03:35:02;4.90;99.90
51021;DHT22;38907;45.562;8.856;2023-03-01T03:40:10;4.80;99.90
51021;DHT22;38907;45.562;8.856;2023-03-01T03:45:17;4.70;99.90
51021;DHT22;38907;45.562;8.856;2023-03-01T03:50:19;4.80;99.90
51021;DHT22;38907;45.562;8.856;2023-03-01T03:55:20;4.90;99.90
51021;DHT22;38907;45.562;8.856;2023-03-01T04:00:24;4.90;99.90
51021;DHT22;38907;45.562;8.856;2023-03-01T04:05:27;4.80;99.90
51021;DHT22;38907;45.562;8.856;2023-03-01T04:10:30;4.70;99.90
51021;DHT22;38907;45.562;8.856;2023-03-01T04:15:34;4.50;99.90
51021;DHT22;38907;45.562;8.856;2023-03-01T04:20:36;4.50;99.90
51021;DHT22;38907;45.562;8.856;2023-03-01T04:25:38;4.30;99.90
51021;DHT22;38907;45.562;8.856;2023-03-01T04:30:42;4.30;99.90
51021;DHT22;38907;45.562;8.856;2023-03-01T04:35:44;4.30;99.90
51021;DHT22;38907;45.562;8.856;2023-03-01T04:40:46;4.00;99.90
51021;DHT22;38907;45.562;8.856;2023-03-01T04:45:49;4.00;99.90
51021;DHT22;38907;45.562;8.856;2023-03-01T04:50:51;4.00;99.90
51021;DHT22;38907;45.562;8.856;2023-03-01T04:55:53;4.00;99.90
51021;DHT22;38907;45.562;8.856;2023-03-01T05:00:57;3.90;99.90
51021;DHT22;38907;45.562;8.856;2023-03-01T05:05:59;3.80;99.90
51021;DHT22;38907;45.562;8.856;2023-03-01T05:11:01;3.80;99.90
51021;DHT22;38907;45.562;8.856;2023-03-01T05:16:06;3.80;99.90
51021;DHT22;38907;45.562;8.856;2023-03-01T05:21:12;3.70;99.90
51021;DHT22;38907;45.562;8.856;2023-03-01T05:26:17;3.80;99.90
51021;DHT22;38907;45.562;8.856;2023-03-01T05:31:23;3.70;99.90
51021;DHT22;38907;45.562;8.856;2023-03-01T05:36:25;3.70;99.90
51021;DHT22;38907;45.562;8.856;2023-03-01T05:41:27;3.60;99.90
51021;DHT22;38907;45.562;8.856;2023-03-01T05:46:30;3.70;99.90
51021;DHT22;38907;45.562;8.856;2023-03-01T05:51:32;3.80;99.90
51021;DHT22;38907;45.562;8.856;2023-03-01T05:56:35;3.70;99.90
51021;DHT22;38907;45.562;8.856;2023-03-01T06:01:38;3.60;99.90
51021;DHT22;38907;45.562;8.856;2023-03-01T06:06:40;3.70;99.90
51021;DHT22;38907;45.562;8.856;2023-03-01T06:11:42;3.60;99.90
51021;DHT22;38907;45.562;8.856;2023-03-01T06:16:45;3.60;99.90
51021;DHT22;38907;45.562;8.856;2023-03-01T06:21:47;3.70;99.90
51021;DHT22;38907;45.562;8.856;2023-03-01T06:26:49;3.60;99.90
51021;DHT22;38907;45.562;8.856;2023-03-01T06:31:52;3.70;99.90
51021;DHT22;38907;45.562;8.856;2023-03-01T06:36:54;3.80;99.90
51021;DHT22;38907;45.562;8.856;2023-03-01T06:41:56;3.70;99.90
51021;DHT22;38907;45.562;8.856;2023-03-01T06:46:59;3.70;99.90
51021;DHT22;38907;45.562;8.856;2023-03-01T06:52:01;3.70;99.90
51021;DHT22;38907;45.562;8.856;2023-03-01T06:57:03;3.80;99.90
51021;DHT22;38907;45.562;8.856;2023-03-01T07:02:06;4.10;99.90
51021;DHT22;38907;45.562;8.856;2023-03-01T07:07:08;4.20;99.90
51021;DHT22;38907;45.562;8.856;2023-03-01T07:12:10;4.40;99.90
51021;DHT22;38907;45.562;8.856;2023-03-01T07:17:13;4.60;99.90
51021;DHT22;38907;45.562;8.856;2023-03-01T07:22:15;4.70;99.90
51021;DHT22;38907;45.562;8.856;2023-03-01T07:27:17;4.70;99.90
51021;DHT22;38907;45.562;8.856;2023-03-01T07:32:20;4.80;99.90
51021;DHT22;38907;45.562;8.856;2023-03-01T07:37:22;5.10;99.90
51021;DHT22;38907;45.562;8.856;2023-03-01T07:42:24;5.10;99.90
51021;DHT22;38907;45.562;8.856;2023-03-01T07:47:27;5.40;99.90
51021;DHT22;38907;45.562;8.856;2023-03-01T07:52:29;5.60;99.90
51021;DHT22;38907;45.562;8.856;2023-03-01T07:57:31;5.80;99.90
51021;DHT22;38907;45.562;8.856;2023-03-01T08:02:34;5.90;99.90
51021;DHT22;38907;45.562;8.856;2023-03-01T08:07:37;6.00;99.90
51021;DHT22;38907;45.562;8.856;2023-03-01T08:12:39;6.10;99.90
51021;DHT22;38907;45.562;8.856;2023-03-01T08:17:42;6.10;99.90
51021;DHT22;38907;45.562;8.856;2023-03-01T08:22:44;6.00;99.90
51021;DHT22;38907;45.562;8.856;2023-03-01T08:27:46;6.10;99.90
51021;DHT22;38907;45.562;8.856;2023-03-01T08:32:50;6.00;99.90
51021;DHT22;38907;45.562;8.856;2023-03-01T08:37:52;6.10;99.90
51021;DHT22;38907;45.562;8.856;2023-03-01T08:42:53;6.10;99.90
51021;DHT22;38907;45.562;8.856;2023-03-01T08:47:57;6.20;99.90
51021;DHT22;38907;45.562;8.856;2023-03-01T08:52:58;6.40;99.90
51021;DHT22;38907;45.562;8.856;2023-03-01T08:58:00;6.60;99.90
51021;DHT22;38907;45.562;8.856;2023-03-01T09:03:03;6.80;99.90
51021;DHT22;38907;45.562;8.856;2023-03-01T09:08:05;6.80;99.90
51021;DHT22;38907;45.562;8.856;2023-03-01T09:13:09;6.70;99.90
51021;DHT22;38907;45.562;8.856;2023-03-01T09:18:12;6.90;99.90
51021;DHT22;38907;45.562;8.856;2023-03-01T09:23:14;7.00;99.90
51021;DHT22;38907;45.562;8.856;2023-03-01T09:28:16;7.10;99.90
51021;DHT22;38907;45.562;8.856;2023-03-01T09:33:19;7.10;99.90
51021;DHT22;38907;45.562;8.856;2023-03-01T09:38:26;7.20;99.90
51021;DHT22;38907;45.562;8.856;2023-03-01T09:43:37;7.30;99.90
51021;DHT22;38907;45.562;8.856;2023-03-01T09:48:48;7.40;99.90
51021;DHT22;38907;45.562;8.856;2023-03-01T09:53:51;7.50;99.90
51021;DHT22;38907;45.562;8.856;2023-03-01T09:59:00;7.60;99.90
51021;DHT22;38907;45.562;8.856;2023-03-01T10:04:32;7.70;99.90
51021;DHT22;38907;45.562;8.856;2023-03-01T10:09:42;8.00;99.90
51021;DHT22;38907;45.562;8.856;2023-03-01T10:14:53;8.10;99.90
51021;DHT22;38907;45.562;8.856;2023-03-01T10:20:15;8.00;99.90
51021;DHT22;38907;45.562;8.856;2023-03-01T10:26:01;8.10;99.90
51021;DHT22;38907;45.562;8.856;2023-03-01T10:31:12;8.10;99.90
51021;DHT22;38907;45.562;8.856;2023-03-01T10:36:16;8.10;99.90
51021;DHT22;38907;45.562;8.856;2023-03-01T10:41:18;8.20;99.90
51021;DHT22;38907;45.562;8.856;2023-03-01T10:46:29;8.40;99.90
51021;DHT22;38907;45.562;8.856;2023-03-01T10:51:33;8.60;99.90
51021;DHT22;38907;45.562;8.856;2023-03-01T10:56:47;8.70;99.90
51021;DHT22;38907;45.562;8.856;2023-03-01T11:02:03;8.80;99.90
51021;DHT22;38907;45.562;8.856;2023-03-01T11:07:07;8.90;99.90
51021;DHT22;38907;45.562;8.856;2023-03-01T11:12:14;8.90;99.90
51021;DHT22;38907;45.562;8.856;2023-03-01T11:17:21;8.80;99.90
51021;DHT22;38907;45.562;8.856;2023-03-01T11:22:26;8.90;99.90
51021;DHT22;38907;45.562;8.856;2023-03-01T11:27:31;9.00;99.90
51021;DHT22;38907;45.562;8.856;2023-03-01T11:32:46;9.10;99.90
51021;DHT22;38907;45.562;8.856;2023-03-01T11:37:58;9.20;99.90
51021;DHT22;38907;45.562;8.856;2023-03-01T11:43:06;9.20;99.90
51021;DHT22;38907;45.562;8.856;2023-03-01T11:48:35;9.30;99.90
51021;DHT22;38907;45.562;8.856;2023-03-01T11:53:54;9.40;99.90
51021;DHT22;38907;45.562;8.856;2023-03-01T11:59:18;9.40;99.90
51021;DHT22;38907;45.562;8.856;2023-03-01T12:04:48;9.40;99.90
51021;DHT22;38907;45.562;8.856;2023-03-01T12:10:16;9.50;99.90
51021;DHT22;38907;45.562;8.856;2023-03-01T12:15:45;9.50;99.90
51021;DHT22;38907;45.562;8.856;2023-03-01T12:20:59;9.50;99.90
51021;DHT22;38907;45.562;8.856;2023-03-01T12:26:10;9.40;99.90
51021;DHT22;38907;45.562;8.856;2023-03-01T12:32:05;9.40;99.90
51021;DHT22;38907;45.562;8.856;2023-03-01T12:37:20;9.60;99.90
51021;DHT22;38907;45.562;8.856;2023-03-01T12:42:29;9.60;99.90
51021;DHT22;38907;45.562;8.856;2023-03-01T12:47:48;9.60;99.90
51021;DHT22;38907;45.562;8.856;2023-03-01T12:52:55;9.70;99.90
51021;DHT22;38907;45.562;8.856;2023-03-01T12:58:06;9.70;99.90
51021;DHT22;38907;45.562;8.856;2023-03-01T13:03:19;9.80;99.90
51021;DHT22;38907;45.562;8.856;2023-03-01T13:08:29;9.70;99.90
51021;DHT22;38907;45.562;8.856;2023-03-01T13:13:34;9.70;99.90
51021;DHT22;38907;45.562;8.856;2023-03-01T13:18:36;9.60;99.90
51021;DHT22;38907;45.562;8.856;2023-03-01T13:23:39;9.60;99.90
51021;DHT22;38907;45.562;8.856;2023-03-01T13:28:51;9.50;99.90
51021;DHT22;38907;45.562;8.856;2023-03-01T13:33:53;9.60;99.90
51021;DHT22;38907;45.562;8.856;2023-03-01T13:38:57;9.60;99.90
51021;DHT22;38907;45.562;8.856;2023-03-01T13:44:00;9.60;99.90
51021;DHT22;38907;45.562;8.856;2023-03-01T13:49:03;9.50;99.90
51021;DHT22;38907;45.562;8.856;2023-03-01T13:54:04;9.60;99.90
51021;DHT22;38907;45.562;8.856;2023-03-01T13:59:13;9.70;99.90
51021;DHT22;38907;45.562;8.856;2023-03-01T14:04:21;9.70;99.90
51021;DHT22;38907;45.562;8.856;2023-03-01T14:09:25;9.70;99.90
51021;DHT22;38907;45.562;8.856;2023-03-01T14:14:54;9.60;99.90
51021;DHT22;38907;45.562;8.856;2023-03-01T14:19:58;9.70;99.90
51021;DHT22;38907;45.562;8.856;2023-03-01T14:25:03;9.50;99.90
51021;DHT22;38907;45.562;8.856;2023-03-01T14:30:15;9.60;99.90
51021;DHT22;38907;45.562;8.856;2023-03-01T14:35:21;9.60;99.90
51021;DHT22;38907;45.562;8.856;2023-03-01T14:40:26;9.50;99.90
51021;DHT22;38907;45.562;8.856;2023-03-01T14:45:30;9.50;99.90
51021;DHT22;38907;45.562;8.856;2023-03-01T14:50:34;9.50;99.90
51021;DHT22;38907;45.562;8.856;2023-03-01T14:55:38;9.40;99.90
51021;DHT22;38907;45.562;8.856;2023-03-01T15:00:49;9.40;99.90
51021;DHT22;38907;45.562;8.856;2023-03-01T15:05:52;9.40;99.90
51021;DHT22;38907;45.562;8.856;2023-03-01T15:11:00;9.50;99.90
51021;DHT22;38907;45.562;8.856;2023-03-01T15:16:06;9.50;99.90
51021;DHT22;38907;45.562;8.856;2023-03-01T15:21:14;9.40;99.90
51021;DHT22;38907;45.562;8.856;2023-03-01T15:26:24;9.40;99.90
51021;DHT22;38907;45.562;8.856;2023-03-01T15:31:31;9.30;99.90
51021;DHT22;38907;45.562;8.856;2023-03-01T15:36:41;9.30;99.90
51021;DHT22;38907;45.562;8.856;2023-03-01T15:41:47;9.20;99.90
51021;DHT22;38907;45.562;8.856;2023-03-01T15:46:50;9.10;99.90
51021;DHT22;38907;45.562;8.856;2023-03-01T15:51:54;9.10;99.90
51021;DHT22;38907;45.562;8.856;2023-03-01T15:56:56;9.10;99.90
51021;DHT22;38907;45.562;8.856;2023-03-01T16:01:59;9.10;99.90
51021;DHT22;38907;45.562;8.856;2023-03-01T16:07:02;9.00;99.90
51021;DHT22;38907;45.562;8.856;2023-03-01T16:12:05;9.00;99.90
51021;DHT22;38907;45.562;8.856;2023-03-01T16:17:08;9.00;99.90
51021;DHT22;38907;45.562;8.856;2023-03-01T16:22:10;8.90;99.90
51021;DHT22;38907;45.562;8.856;2023-03-01T16:27:12;8.90;99.90
51021;DHT22;38907;45.562;8.856;2023-03-01T16:32:17;8.80;99.90
51021;DHT22;38907;45.562;8.856;2023-03-01T16:37:19;8.80;99.90
51021;DHT22;38907;45.562;8.856;2023-03-01T16:42:22;8.70;99.90
51021;DHT22;38907;45.562;8.856;2023-03-01T16:47:26;8.60;99.90
51021;DHT22;38907;45.562;8.856;2023-03-01T16:52:28;8.70;99.90
51021;DHT22;38907;45.562;8.856;2023-03-01T16:57:33;8.70;99.90
51021;DHT22;38907;45.562;8.856;2023-03-01T17:02:36;8.60;99.90
51021;DHT22;38907;45.562;8.856;2023-03-01T17:07:40;8.60;99.90
51021;DHT22;38907;45.562;8.856;2023-03-01T17:12:43;8.50;99.90
51021;DHT22;38907;45.562;8.856;2023-03-01T17:17:49;8.50;99.90
51021;DHT22;38907;45.562;8.856;2023-03-01T17:22:56;8.50;99.90
51021;DHT22;38907;45.562;8.856;2023-03-01T17:27:59;8.40;99.90
51021;DHT22;38907;45.562;8.856;2023-03-01T17:33:03;8.40;99.90
51021;DHT22;38907;45.562;8.856;2023-03-01T17:38:05;8.40;99.90
51021;DHT22;38907;45.562;8.856;2023-03-01T17:43:07;8.30;99.90
51021;DHT22;38907;45.562;8.856;2023-03-01T17:48:10;8.30;99.90
51021;DHT22;38907;45.562;8.856;2023-03-01T17:53:13;8.20;99.90
51021;DHT22;38907;45.562;8.856;2023-03-01T17:58:15;8.10;99.90
51021;DHT22;38907;45.562;8.856;2023-03-01T18:03:23;8.10;99.90
51021;DHT22;38907;45.562;8.856;2023-03-01T18:08:25;8.10;99.90
51021;DHT22;38907;45.562;8.856;2023-03-01T18:13:27;8.10;99.90
51021;DHT22;38907;45.562;8.856;2023-03-01T18:18:30;8.10;99.90
51021;DHT22;38907;45.562;8.856;2023-03-01T18:23:34;8.10;99.90
51021;DHT22;38907;45.562;8.856;2023-03-01T18:28:37;8.10;99.90
51021;DHT22;38907;45.562;8.856;2023-03-01T18:33:41;8.00;99.90
51021;DHT22;38907;45.562;8.856;2023-03-01T18:38:43;8.00;99.90
51021;DHT22;38907;45.562;8.856;2023-03-01T18:43:45;7.90;99.90
51021;DHT22;38907;45.562;8.856;2023-03-01T18:48:48;7.80;99.90
51021;DHT22;38907;45.562;8.856;2023-03-01T18:53:50;7.80;99.90
51021;DHT22;38907;45.562;8.856;2023-03-01T18:58:52;7.80;99.90
51021;DHT22;38907;45.562;8.856;2023-03-01T19:03:55;7.70;99.90
51021;DHT22;38907;45.562;8.856;2023-03-01T19:08:58;7.50;99.90
51021;DHT22;38907;45.562;8.856;2023-03-01T19:14:00;7.60;99.90
51021;DHT22;38907;45.562;8.856;2023-03-01T19:19:04;7.60;99.90
51021;DHT22;38907;45.562;8.856;2023-03-01T19:24:07;7.60;99.90
51021;DHT22;38907;45.562;8.856;2023-03-01T19:29:10;7.50;99.90
51021;DHT22;38907;45.562;8.856;2023-03-01T19:34:14;7.50;99.90
51021;DHT22;38907;45.562;8.856;2023-03-01T19:39:15;7.40;99.90
51021;DHT22;38907;45.562;8.856;2023-03-01T19:44:17;7.40;99.90
51021;DHT22;38907;45.562;8.856;2023-03-01T19:49:25;7.20;99.90
51021;DHT22;38907;45.562;8.856;2023-03-01T19:54:29;7.20;99.90
51021;DHT22;38907;45.562;8.856;2023-03-01T19:59:31;7.40;99.90
51021;DHT22;38907;45.562;8.856;2023-03-01T20:04:34;7.40;99.90
51021;DHT22;38907;45.562;8.856;2023-03-01T20:09:36;7.40;99.90
51021;DHT22;38907;45.562;8.856;2023-03-01T20:14:39;7.40;99.90
51021;DHT22;38907;45.562;8.856;2023-03-01T20:19:42;7.30;99.90
51021;DHT22;38907;45.562;8.856;2023-03-01T20:24:44;7.30;99.90
51021;DHT22;38907;45.562;8.856;2023-03-01T20:29:46;7.30;99.90
51021;DHT22;38907;45.562;8.856;2023-03-01T20:34:49;7.30;99.90
51021;DHT22;38907;45.562;8.856;2023-03-01T20:39:51;7.30;99.90
51021;DHT22;38907;45.562;8.856;2023-03-01T20:44:53;7.10;99.90
51021;DHT22;38907;45.562;8.856;2023-03-01T20:49:56;7.10;99.90
51021;DHT22;38907;45.562;8.856;2023-03-01T20:55:01;7.20;99.90
51021;DHT22;38907;45.562;8.856;2023-03-01T21:00:04;7.20;99.90
51021;DHT22;38907;45.562;8.856;2023-03-01T21:05:08;7.10;99.90
51021;DHT22;38907;45.562;8.856;2023-03-01T21:10:11;7.10;99.90
51021;DHT22;38907;45.562;8.856;2023-03-01T21:15:13;6.90;99.90
51021;DHT22;38907;45.562;8.856;2023-03-01T21:20:17;6.80;99.90
51021;DHT22;38907;45.562;8.856;2023-03-01T21:25:19;6.80;99.90
51021;DHT22;38907;45.562;8.856;2023-03-01T21:30:21;6.90;99.90
51021;DHT22;38907;45.562;8.856;2023-03-01T21:35:24;6.90;99.90
51021;DHT22;38907;45.562;8.856;2023-03-01T21:40:26;6.90;99.90
51021;DHT22;38907;45.562;8.856;2023-03-01T21:45:28;6.90;99.90
51021;DHT22;38907;45.562;8.856;2023-03-01T21:50:31;6.80;99.90
51021;DHT22;38907;45.562;8.856;2023-03-01T21:55:33;6.80;99.90
51021;DHT22;38907;45.562;8.856;2023-03-01T22:00:35;6.80;99.90
51021;DHT22;38907;45.562;8.856;2023-03-01T22:05:40;6.80;99.90
51021;DHT22;38907;45.562;8.856;2023-03-01T22:10:42;6.70;99.90
51021;DHT22;38907;45.562;8.856;2023-03-01T22:15:44;6.70;99.90
51021;DHT22;38907;45.562;8.856;2023-03-01T22:20:47;6.60;99.90
51021;DHT22;38907;45.562;8.856;2023-03-01T22:25:49;6.60;99.90
51021;DHT22;38907;45.562;8.856;2023-03-01T22:30:51;6.50;99.90
51021;DHT22;38907;45.562;8.856;2023-03-01T22:35:55;6.60;99.90
51021;DHT22;38907;45.562;8.856;2023-03-01T22:40:58;6.60;99.90
51021;DHT22;38907;45.562;8.856;2023-03-01T22:46:09;6.70;99.90
51021;DHT22;38907;45.562;8.856;2023-03-01T22:51:14;6.60;99.90
51021;DHT22;38907;45.562;8.856;2023-03-01T22:56:18;6.60;99.90
51021;DHT22;38907;45.562;8.856;2023-03-01T23:01:22;6.50;99.90
51021;DHT22;38907;45.562;8.856;2023-03-01T23:06:26;6.40;99.90
51021;DHT22;38907;45.562;8.856;2023-03-01T23:11:29;6.50;99.90
51021;DHT22;38907;45.562;8.856;2023-03-01T23:16:32;6.50;99.90
51021;DHT22;38907;45.562;8.856;2023-03-01T23:21:35;6.60;99.90
51021;DHT22;38907;45.562;8.856;2023-03-01T23:26:37;6.60;99.90
51021;DHT22;38907;45.562;8.856;2023-03-01T23:31:39;6.50;99.90
51021;DHT22;38907;45.562;8.856;2023-03-01T23:36:43;6.50;99.90
51021;DHT22;38907;45.562;8.856;2023-03-01T23:41:45;6.50;99.90
51021;DHT22;38907;45.562;8.856;2023-03-01T23:46:48;6.40;99.90
51021;DHT22;38907;45.562;8.856;2023-03-01T23:51:52;6.30;99.90
51021;DHT22;38907;45.562;8.856;2023-03-01T23:56:54;6.40;99.90
